createdAt,value
2019-05-01T00:03:14.057Z,8.48
2019-05-01T00:06:34.554Z,8.37
2019-05-01T00:09:48.393Z,8.29
2019-05-01T00:13:03.307Z,8.22
2019-05-01T00:16:17.254Z,8.13
2019-05-01T00:19:30.869Z,8.14
2019-05-01T00:22:44.357Z,8.07
2019-05-01T00:25:57.868Z,8.01
2019-05-01T00:29:11.784Z,7.92
2019-05-01T00:32:25.268Z,7.88
2019-05-01T00:35:38.770Z,7.86
2019-05-01T00:38:52.279Z,7.78
2019-05-01T00:42:05.883Z,7.72
2019-05-01T00:45:19.707Z,7.70
2019-05-01T00:48:33.524Z,7.61
2019-05-01T00:51:47.385Z,7.52
2019-05-01T00:55:19.320Z,7.48
2019-05-01T00:58:41.607Z,7.43
2019-05-01T01:02:13.252Z,7.37
2019-05-01T01:05:26.961Z,7.32
2019-05-01T01:08:40.451Z,7.27
2019-05-01T01:11:53.946Z,7.22
2019-05-01T01:15:07.759Z,7.17
2019-05-01T01:18:21.348Z,7.05
2019-05-01T01:21:35.860Z,6.99
2019-05-01T01:24:49.706Z,6.94
2019-05-01T01:28:03.830Z,6.93
2019-05-01T01:31:17.473Z,6.90
2019-05-01T01:34:31.133Z,6.89
2019-05-01T01:37:44.820Z,6.79
2019-05-01T01:40:58.533Z,6.75
2019-05-01T01:44:50.184Z,6.73
2019-05-01T01:48:11.454Z,6.71
2019-05-01T01:51:25.680Z,6.65
2019-05-01T01:54:39.593Z,6.62
2019-05-01T01:57:53.997Z,6.55
2019-05-01T02:01:26.081Z,6.49
2019-05-01T02:04:58.192Z,6.46
2019-05-01T02:08:12.485Z,6.34
2019-05-01T02:11:26.651Z,6.34
2019-05-01T02:14:40.242Z,6.35
2019-05-01T02:17:54.216Z,6.36
2019-05-01T02:21:07.978Z,6.32
2019-05-01T02:24:21.917Z,6.25
2019-05-01T02:27:42.053Z,6.22
2019-05-01T02:31:27.316Z,6.14
2019-05-01T02:34:31.056Z,6.07
2019-05-01T02:37:45.712Z,6.07
2019-05-01T02:41:02.323Z,6.02
2019-05-01T02:44:24.051Z,6.06
2019-05-01T02:47:38.962Z,6.03
2019-05-01T02:50:57.065Z,5.89
2019-05-01T02:54:12.851Z,5.88
2019-05-01T02:57:27.052Z,5.88
2019-05-01T03:00:41.400Z,5.90
2019-05-01T03:03:55.973Z,5.91
2019-05-01T03:07:10.581Z,5.93
2019-05-01T03:10:24.510Z,5.79
2019-05-01T03:13:40.313Z,5.74
2019-05-01T03:16:58.432Z,5.70
2019-05-01T03:20:45.757Z,5.58
2019-05-01T03:24:11.692Z,5.55
2019-05-01T03:27:25.534Z,5.54
2019-05-01T03:30:39.327Z,5.60
2019-05-01T03:33:53.146Z,5.53
2019-05-01T03:37:08.110Z,5.52
2019-05-01T03:40:22.098Z,5.52
2019-05-01T03:43:36.300Z,5.45
2019-05-01T03:46:50.356Z,5.38
2019-05-01T03:50:04.838Z,5.34
2019-05-01T03:53:18.753Z,5.32
2019-05-01T03:56:32.368Z,5.26
2019-05-01T03:59:46.064Z,5.25
2019-05-01T04:03:34.895Z,5.21
2019-05-01T04:06:48.829Z,5.17
2019-05-01T04:10:03.439Z,5.08
2019-05-01T04:13:17.263Z,5.09
2019-05-01T04:16:32.125Z,5.07
2019-05-01T04:19:46.142Z,5.13
2019-05-01T04:23:00.194Z,5.15
2019-05-01T04:26:13.899Z,5.14
2019-05-01T04:29:47.582Z,5.15
2019-05-01T04:33:04.347Z,5.14
2019-05-01T04:36:24.490Z,5.16
2019-05-01T04:39:38.502Z,5.20
2019-05-01T04:42:52.426Z,5.22
2019-05-01T04:46:06.667Z,5.23
2019-05-01T04:49:20.926Z,5.28
2019-05-01T04:52:35.026Z,5.30
2019-05-01T04:55:49.126Z,5.28
2019-05-01T04:59:02.862Z,5.25
2019-05-01T05:02:23.672Z,5.37
2019-05-01T05:05:37.673Z,5.47
2019-05-01T05:08:51.414Z,5.52
2019-05-01T05:12:07.534Z,5.58
2019-05-01T05:16:49.780Z,5.76
2019-05-01T05:20:03.922Z,5.73
2019-05-01T05:26:51.776Z,5.86
2019-05-01T05:30:05.582Z,5.98
2019-05-01T05:33:20.757Z,6.06
2019-05-01T05:36:36.481Z,6.19
2019-05-01T05:39:51.004Z,6.31
2019-05-01T05:43:05.225Z,6.43
2019-05-01T05:46:18.917Z,6.53
2019-05-01T05:49:33.383Z,6.64
2019-05-01T05:52:53.221Z,6.78
2019-05-01T05:56:13.139Z,6.91
2019-05-01T05:59:30.660Z,7.04
2019-05-01T06:03:00.892Z,7.08
2019-05-01T06:06:27.565Z,7.21
2019-05-01T06:10:00.189Z,7.46
2019-05-01T06:13:42.706Z,7.69
2019-05-01T06:17:28.488Z,7.83
2019-05-01T06:20:57.061Z,8.01
2019-05-01T06:24:13.275Z,8.26
2019-05-01T06:27:27.684Z,8.48
2019-05-01T06:30:42.095Z,8.88
2019-05-01T06:33:57.247Z,9.01
2019-05-01T06:37:11.054Z,9.22
2019-05-01T06:40:37.555Z,9.45
2019-05-01T06:44:02.393Z,9.69
2019-05-01T06:47:21.697Z,9.96
2019-05-01T06:50:41.603Z,10.24
2019-05-01T06:53:55.144Z,10.53
2019-05-01T06:57:09.096Z,10.80
2019-05-01T07:00:22.812Z,11.06
2019-05-01T07:03:40.853Z,11.33
2019-05-01T07:06:53.049Z,11.68
2019-05-01T07:10:06.953Z,12.04
2019-05-01T07:13:21.084Z,12.60
2019-05-01T07:16:38.070Z,13.39
2019-05-01T07:20:12.011Z,13.70
2019-05-01T07:23:24.216Z,13.84
2019-05-01T07:26:38.154Z,13.85
2019-05-01T07:29:54.829Z,14.22
2019-05-01T07:33:12.070Z,15.01
2019-05-01T07:36:24.481Z,15.17
2019-05-01T07:39:38.372Z,14.69
2019-05-01T07:42:56.890Z,14.55
2019-05-01T07:46:36.323Z,14.41
2019-05-01T07:49:54.780Z,14.43
2019-05-01T07:53:09.059Z,14.48
2019-05-01T07:56:28.141Z,14.58
2019-05-01T07:59:40.803Z,14.69
2019-05-01T08:02:55.196Z,14.75
2019-05-01T08:06:09.207Z,14.85
2019-05-01T08:09:22.751Z,14.96
2019-05-01T08:12:36.266Z,15.10
2019-05-01T08:15:50.062Z,15.27
2019-05-01T08:19:16.769Z,15.36
2019-05-01T08:22:37.089Z,15.49
2019-05-01T08:25:49.114Z,15.55
2019-05-01T08:29:26.391Z,15.72
2019-05-01T08:32:47.581Z,16.01
2019-05-01T08:36:01.383Z,16.11
2019-05-01T08:39:15.105Z,16.25
2019-05-01T08:42:28.726Z,16.49
2019-05-01T08:46:02.120Z,16.56
2019-05-01T08:49:28.587Z,16.72
2019-05-01T08:52:42.733Z,16.82
2019-05-01T08:55:57.759Z,16.93
2019-05-01T08:59:11.437Z,16.90
2019-05-01T09:02:25.105Z,17.00
2019-05-01T09:05:38.586Z,17.19
2019-05-01T09:08:52.111Z,17.45
2019-05-01T09:12:06.911Z,17.58
2019-05-01T09:15:21.157Z,17.76
2019-05-01T09:18:34.784Z,17.88
2019-05-01T09:21:48.498Z,18.04
2019-05-01T09:25:02.889Z,18.27
2019-05-01T09:28:23.099Z,18.49
2019-05-01T09:31:36.917Z,18.68
2019-05-01T09:34:50.771Z,18.89
2019-05-01T09:38:04.506Z,18.85
2019-05-01T09:41:18.219Z,19.03
2019-05-01T09:44:32.141Z,19.35
2019-05-01T09:47:46.087Z,19.42
2019-05-01T09:51:07.697Z,19.32
2019-05-01T09:54:34.858Z,19.37
2019-05-01T09:57:48.684Z,19.39
2019-05-01T10:01:02.616Z,19.19
2019-05-01T10:04:16.242Z,19.30
2019-05-01T10:07:30.790Z,19.68
2019-05-01T10:10:44.491Z,19.92
2019-05-01T10:13:59.696Z,20.12
2019-05-01T10:17:13.627Z,19.97
2019-05-01T10:20:27.376Z,20.13
2019-05-01T10:23:41.296Z,19.90
2019-05-01T10:27:00.197Z,20.07
2019-05-01T10:30:27.219Z,20.29
2019-05-01T10:33:43.496Z,20.54
2019-05-01T10:36:57.361Z,20.15
2019-05-01T10:40:11.296Z,19.82
2019-05-01T10:43:24.975Z,19.99
2019-05-01T10:46:38.490Z,20.39
2019-05-01T10:49:52.114Z,20.48
2019-05-01T10:53:05.885Z,20.24
2019-05-01T10:56:19.535Z,20.33
2019-05-01T10:59:33.071Z,20.41
2019-05-01T11:02:46.855Z,20.65
2019-05-01T11:06:00.871Z,20.71
2019-05-01T11:09:14.518Z,20.78
2019-05-01T11:12:28.207Z,20.17
2019-05-01T11:15:41.837Z,20.38
2019-05-01T11:18:55.470Z,20.60
2019-05-01T11:22:09.348Z,20.66
2019-05-01T11:25:22.988Z,20.72
2019-05-01T11:28:36.840Z,20.84
2019-05-01T11:32:15.827Z,21.00
2019-05-01T11:35:49.618Z,21.16
2019-05-01T11:39:23.321Z,21.48
2019-05-01T11:42:37.063Z,21.47
2019-05-01T11:45:50.888Z,21.89
2019-05-01T11:49:05.195Z,22.18
2019-05-01T11:52:18.758Z,21.92
2019-05-01T11:55:32.466Z,21.43
2019-05-01T11:58:46.097Z,20.93
2019-05-01T12:02:02.384Z,20.84
2019-05-01T12:05:15.491Z,20.45
2019-05-01T12:08:29.121Z,20.12
2019-05-01T12:11:45.201Z,20.05
2019-05-01T12:16:52.117Z,21.05
2019-05-01T12:20:06.840Z,21.49
2019-05-01T12:23:20.956Z,21.25
2019-05-01T12:26:34.807Z,21.13
2019-05-01T12:29:48.802Z,20.92
2019-05-01T12:33:02.539Z,20.95
2019-05-01T12:36:16.214Z,21.04
2019-05-01T12:39:32.126Z,21.31
2019-05-01T12:42:45.969Z,21.32
2019-05-01T12:45:59.981Z,21.80
2019-05-01T12:49:15.834Z,22.41
2019-05-01T12:56:49.158Z,23.33
2019-05-01T13:00:08.972Z,23.80
2019-05-01T13:03:20.674Z,23.93
2019-05-01T13:06:34.935Z,24.15
2019-05-01T13:09:48.831Z,24.01
2019-05-01T13:13:02.704Z,24.05
2019-05-01T13:16:16.395Z,23.09
2019-05-01T13:19:30.605Z,22.29
2019-05-01T13:22:44.619Z,21.74
2019-05-01T13:26:05.417Z,21.39
2019-05-01T13:29:38.898Z,21.13
2019-05-01T13:32:53.567Z,20.78
2019-05-01T13:36:07.388Z,20.56
2019-05-01T13:39:21.151Z,20.44
2019-05-01T13:42:35.050Z,20.35
2019-05-01T13:45:48.636Z,20.67
2019-05-01T13:49:02.500Z,20.73
2019-05-01T13:52:16.156Z,20.47
2019-05-01T13:55:29.913Z,20.26
2019-05-01T13:58:43.501Z,20.27
2019-05-01T14:01:57.250Z,20.36
2019-05-01T14:05:11.062Z,20.69
2019-05-01T14:08:24.822Z,21.09
2019-05-01T14:11:38.595Z,21.48
2019-05-01T14:14:52.289Z,22.13
2019-05-01T14:18:05.873Z,22.15
2019-05-01T14:21:31.243Z,21.55
2019-05-01T14:24:48.651Z,21.27
2019-05-01T14:28:02.282Z,21.51
2019-05-01T14:31:16.388Z,21.28
2019-05-01T14:34:29.896Z,21.24
2019-05-01T14:37:43.451Z,21.22
2019-05-01T14:40:57.010Z,21.13
2019-05-01T14:44:10.946Z,21.11
2019-05-01T14:47:25.163Z,21.08
2019-05-01T14:50:38.982Z,21.06
2019-05-01T14:53:52.619Z,21.02
2019-05-01T14:57:06.211Z,20.85
2019-05-01T15:00:20.538Z,20.85
2019-05-01T15:03:34.209Z,20.75
2019-05-01T15:06:47.749Z,20.70
2019-05-01T15:10:01.363Z,20.66
2019-05-01T15:13:25.422Z,20.51
2019-05-01T15:17:13.713Z,20.11
2019-05-01T15:20:27.566Z,19.73
2019-05-01T15:23:53.110Z,19.46
2019-05-01T15:26:56.650Z,19.28
2019-05-01T15:30:14.432Z,19.33
2019-05-01T15:33:27.960Z,19.26
2019-05-01T15:36:41.933Z,19.42
2019-05-01T15:40:05.615Z,19.27
2019-05-01T15:43:28.371Z,19.26
2019-05-01T15:46:42.163Z,19.31
2019-05-01T15:49:56.284Z,19.30
2019-05-01T15:53:09.798Z,19.50
2019-05-01T15:56:23.429Z,20.15
2019-05-01T15:59:36.926Z,20.59
2019-05-01T16:02:50.551Z,21.22
2019-05-01T16:06:04.354Z,21.60
2019-05-01T16:09:18.114Z,22.18
2019-05-01T16:12:39.644Z,22.50
2019-05-01T16:15:53.365Z,22.72
2019-05-01T16:19:06.908Z,23.20
2019-05-01T16:22:20.836Z,23.68
2019-05-01T16:25:34.859Z,24.12
2019-05-01T16:28:48.784Z,24.84
2019-05-01T16:32:02.862Z,25.33
2019-05-01T16:35:16.563Z,26.41
2019-05-01T16:38:41.298Z,26.41
2019-05-01T16:41:55.105Z,26.83
2019-05-01T16:45:09.586Z,27.51
2019-05-01T16:48:23.214Z,27.38
2019-05-01T16:51:37.192Z,27.70
2019-05-01T16:54:58.999Z,27.77
2019-05-01T16:58:08.878Z,27.90
2019-05-01T17:01:39.796Z,28.54
2019-05-01T17:05:19.056Z,28.29
2019-05-01T17:08:43.190Z,29.16
2019-05-01T17:11:56.808Z,29.60
2019-05-01T17:15:11.026Z,29.37
2019-05-01T17:18:25.033Z,29.50
2019-05-01T17:21:38.719Z,29.55
2019-05-01T17:24:52.245Z,29.23
2019-05-01T17:28:08.148Z,29.07
2019-05-01T17:31:22.958Z,28.91
2019-05-01T17:34:36.454Z,28.01
2019-05-01T17:37:49.970Z,25.98
2019-05-01T17:41:03.988Z,24.82
2019-05-01T17:44:20.130Z,23.78
2019-05-01T17:47:33.134Z,22.85
2019-05-01T17:50:46.827Z,21.93
2019-05-01T17:54:00.559Z,21.28
2019-05-01T17:57:14.286Z,20.55
2019-05-01T18:00:50.238Z,20.02
2019-05-01T18:04:18.941Z,19.55
2019-05-01T18:07:33.170Z,19.08
2019-05-01T18:10:48.199Z,18.58
2019-05-01T18:14:02.219Z,18.26
2019-05-01T18:17:15.860Z,17.98
2019-05-01T18:20:29.579Z,17.69
2019-05-01T18:24:01.677Z,17.41
2019-05-01T18:27:26.353Z,17.07
2019-05-01T18:30:41.309Z,16.74
2019-05-01T18:33:57.019Z,16.47
2019-05-01T18:37:17.447Z,16.23
2019-05-01T18:40:35.551Z,15.98
2019-05-01T18:43:49.087Z,15.75
2019-05-01T18:47:03.099Z,15.48
2019-05-01T18:50:16.845Z,15.17
2019-05-01T18:53:30.621Z,15.00
2019-05-01T18:56:44.577Z,14.84
2019-05-01T18:59:58.681Z,14.65
2019-05-01T19:03:12.312Z,14.48
2019-05-01T19:06:26.189Z,14.30
2019-05-01T19:09:40.330Z,14.16
2019-05-01T19:12:54.229Z,14.05
2019-05-01T19:16:08.690Z,13.93
2019-05-01T19:19:23.456Z,13.77
2019-05-01T19:22:37.538Z,13.65
2019-05-01T19:25:51.695Z,13.57
2019-05-01T19:29:05.295Z,13.46
2019-05-01T19:32:20.716Z,13.32
2019-05-01T19:35:34.514Z,13.21
2019-05-01T19:38:48.189Z,13.11
2019-05-01T19:42:01.872Z,12.98
2019-05-01T19:45:18.228Z,12.83
2019-05-01T19:48:31.211Z,12.73
2019-05-01T19:51:44.785Z,12.64
2019-05-01T19:55:01.399Z,12.58
2019-05-01T19:58:14.126Z,12.42
2019-05-01T20:01:27.913Z,12.31
2019-05-01T20:04:45.200Z,12.18
2019-05-01T20:07:57.897Z,12.22
2019-05-01T20:11:11.994Z,12.06
2019-05-01T20:14:25.910Z,12.00
2019-05-01T20:17:39.736Z,12.06
2019-05-01T20:20:53.268Z,12.03
2019-05-01T20:24:09.452Z,12.00
2019-05-01T20:27:22.191Z,11.95
2019-05-01T20:30:35.786Z,11.95
2019-05-01T20:33:49.378Z,11.94
2019-05-01T20:37:03.274Z,11.85
2019-05-01T20:40:17.592Z,11.84
2019-05-01T20:43:33.515Z,11.84
2019-05-01T20:46:46.694Z,11.80
2019-05-01T20:50:00.590Z,11.79
2019-05-01T20:53:14.325Z,11.80
2019-05-01T20:56:33.325Z,11.76
2019-05-01T20:59:48.324Z,11.68
2019-05-01T21:03:02.312Z,11.64
2019-05-01T21:06:28.274Z,11.65
2019-05-01T21:09:47.680Z,11.63
2019-05-01T21:16:37.926Z,11.50
2019-05-01T21:19:49.765Z,11.47
2019-05-01T21:23:10.401Z,11.51
2019-05-01T21:26:18.750Z,11.52
2019-05-01T21:29:34.202Z,11.57
2019-05-01T21:32:47.975Z,11.59
2019-05-01T21:36:04.987Z,11.62
2019-05-01T21:39:18.044Z,11.60
2019-05-01T21:42:32.694Z,11.56
2019-05-01T21:45:46.189Z,11.56
2019-05-01T21:48:59.690Z,11.50
2019-05-01T21:52:13.664Z,11.42
2019-05-01T21:55:30.205Z,11.36
2019-05-01T21:58:45.161Z,11.32
2019-05-01T22:01:58.755Z,11.29
2019-05-01T22:05:12.756Z,11.22
2019-05-01T22:08:27.046Z,11.21
2019-05-01T22:11:43.319Z,11.12
2019-05-01T22:15:00.693Z,11.08
2019-05-01T22:18:31.537Z,11.05
2019-05-01T22:22:01.054Z,11.03
2019-05-01T22:25:27.902Z,11.04
2019-05-01T22:28:50.204Z,10.99
2019-05-01T22:32:12.492Z,10.99
2019-05-01T22:35:32.369Z,11.03
2019-05-01T22:38:46.706Z,11.04
2019-05-01T22:42:00.442Z,11.03
2019-05-01T22:45:19.445Z,10.97
2019-05-01T22:48:33.037Z,10.91
2019-05-01T22:51:46.555Z,10.90
2019-05-01T22:55:00.181Z,10.88
2019-05-01T22:58:13.861Z,10.85
2019-05-01T23:01:27.547Z,10.82
2019-05-01T23:04:41.222Z,10.82
2019-05-01T23:07:57.072Z,10.79
2019-05-01T23:11:19.870Z,10.79
2019-05-01T23:14:27.519Z,10.75
2019-05-01T23:17:44.360Z,10.70
2019-05-01T23:20:58.053Z,10.62
2019-05-01T23:24:11.648Z,10.59
2019-05-01T23:27:29.224Z,10.54
2019-05-01T23:30:40.673Z,10.48
2019-05-01T23:33:54.190Z,10.38
2019-05-01T23:37:08.070Z,10.27
2019-05-01T23:40:21.921Z,10.19
2019-05-01T23:43:35.946Z,10.11
2019-05-01T23:46:49.451Z,10.04
2019-05-01T23:50:03.874Z,9.99
2019-05-01T23:53:17.378Z,9.93
2019-05-01T23:56:35.161Z,9.81
2019-05-01T23:59:46.851Z,9.75
